Terminal Aerodrome Forecast
Issued by NWS

Home | Current Version | Previous Version | Text Only | Print | Product List | Glossary On
Versions: 1 2 3 4 5 6 7 8 9 10 11 12 13
000
FTUS43 KFGF 181700
TAFBJI
TAF
KBJI 181720Z 1818/1918 14012G19KT P6SM SCT090
     FM182100 13017G24KT P6SM BKN080
     FM190300 13020KT P6SM BKN050
     FM190600 14019KT 4SM -RA BKN025
     FM191400 18015KT P6SM BKN025=

USA.gov is the U.S. government's official web portal to all federal, state and local government web resources and services.